createdAt,value
2023-05-07T00:01:57.753Z,95438.09
2023-05-07T00:04:24.290Z,95439.72
2023-05-07T00:06:51.694Z,95444.13
2023-05-07T00:09:18.029Z,95442.72
2023-05-07T00:11:44.301Z,95443.53
2023-05-07T00:14:10.587Z,95448.38
2023-05-07T00:16:36.886Z,95442.66
2023-05-07T00:19:04.748Z,95436.44
2023-05-07T00:21:31.095Z,95436.16
2023-05-07T00:23:58.096Z,95438.38
2023-05-07T00:26:24.391Z,95431.94
2023-05-07T00:28:50.677Z,95427.06
2023-05-07T00:31:16.992Z,95428.69
2023-05-07T00:33:43.299Z,95429.50
2023-05-07T00:36:09.877Z,95435.94
2023-05-07T00:38:36.163Z,95431.84
2023-05-07T00:41:03.090Z,95434.81
2023-05-07T00:43:29.785Z,95434.03
2023-05-07T00:45:56.323Z,95428.94
2023-05-07T00:48:24.571Z,95424.09
2023-05-07T00:50:51.276Z,95436.47
2023-05-07T00:53:17.751Z,95432.69
2023-05-07T00:55:44.103Z,95426.75
2023-05-07T00:58:11.208Z,95431.97
2023-05-07T01:00:37.600Z,95425.75
2023-05-07T01:03:04.383Z,95426.56
2023-05-07T01:05:31.322Z,95427.38
2023-05-07T01:07:58.829Z,95436.28
2023-05-07T01:10:26.163Z,95434.66
2023-05-07T01:12:52.946Z,95431.41
2023-05-07T01:15:20.002Z,95433.56
2023-05-07T01:17:47.089Z,95435.66
2023-05-07T01:20:14.400Z,95429.41
2023-05-07T01:22:41.695Z,95436.47
2023-05-07T01:25:11.078Z,95434.91
2023-05-07T01:27:40.460Z,95429.81
2023-05-07T01:30:08.105Z,95426.34
2023-05-07T01:32:51.864Z,95423.28
2023-05-07T01:35:20.921Z,95421.41
2023-05-07T01:37:48.646Z,95425.97
2023-05-07T01:40:15.231Z,95417.34
2023-05-07T01:42:43.457Z,95413.34
2023-05-07T01:45:10.679Z,95420.16
2023-05-07T01:47:37.863Z,95420.09
2023-05-07T01:50:05.986Z,95420.59
2023-05-07T01:52:32.486Z,95414.09
2023-05-07T01:54:59.415Z,95416.59
2023-05-07T01:57:25.720Z,95411.19
2023-05-07T01:59:52.062Z,95412.84
2023-05-07T02:02:18.405Z,95417.22
2023-05-07T02:04:44.734Z,95410.75
2023-05-07T02:07:11.066Z,95422.94
2023-05-07T02:09:37.367Z,95423.47
2023-05-07T02:12:05.112Z,95423.81
2023-05-07T02:14:31.420Z,95420.59
2023-05-07T02:16:57.795Z,95423.31
2023-05-07T02:19:24.232Z,95421.97
2023-05-07T02:21:51.252Z,95432.25
2023-05-07T02:24:17.664Z,95420.56
2023-05-07T02:26:44.101Z,95420.31
2023-05-07T02:29:11.095Z,95428.44
2023-05-07T02:31:37.513Z,95421.69
2023-05-07T02:34:04.209Z,95417.34
2023-05-07T02:36:30.611Z,95427.13
2023-05-07T02:38:56.935Z,95424.69
2023-05-07T02:41:23.223Z,95418.19
2023-05-07T02:43:49.497Z,95416.81
2023-05-07T02:46:16.461Z,95414.41
2023-05-07T02:48:43.296Z,95421.97
2023-05-07T02:51:09.582Z,95416.59
2023-05-07T02:53:35.882Z,95418.75
2023-05-07T02:56:02.610Z,95422.00
2023-05-07T02:58:29.021Z,95421.19
2023-05-07T03:00:55.607Z,95410.41
2023-05-07T03:03:22.658Z,95417.44
2023-05-07T03:05:49.037Z,95426.66
2023-05-07T03:08:17.519Z,95426.69
2023-05-07T03:10:43.831Z,95423.44
2023-05-07T03:13:10.236Z,95429.34
2023-05-07T03:15:36.753Z,95411.78
2023-05-07T03:18:03.214Z,95412.06
2023-05-07T03:20:30.386Z,95417.22
2023-05-07T03:22:56.801Z,95420.47
2023-05-07T03:25:23.244Z,95419.66
2023-05-07T03:27:49.485Z,95415.63
2023-05-07T03:30:15.828Z,95412.63
2023-05-07T03:32:42.174Z,95415.91
2023-05-07T03:35:08.686Z,95407.25
2023-05-07T03:37:37.688Z,95413.75
2023-05-07T03:40:04.908Z,95413.44
2023-05-07T03:42:31.174Z,95415.09
2023-05-07T03:44:57.502Z,95414.56
2023-05-07T03:47:23.840Z,95419.69
2023-05-07T03:49:53.174Z,95421.88
2023-05-07T03:52:24.002Z,95416.75
2023-05-07T03:54:50.956Z,95422.16
2023-05-07T03:57:17.275Z,95412.44
2023-05-07T03:59:43.605Z,95417.84
2023-05-07T04:02:10.127Z,95422.94
2023-05-07T04:04:36.474Z,95426.75
2023-05-07T04:07:03.267Z,95432.97
2023-05-07T04:09:29.571Z,95437.03
2023-05-07T04:11:56.464Z,95426.22
2023-05-07T04:14:22.770Z,95435.94
2023-05-07T04:16:49.128Z,95436.19
2023-05-07T04:19:15.608Z,95435.38
2023-05-07T04:21:41.876Z,95442.41
2023-05-07T04:24:08.256Z,95436.47
2023-05-07T04:26:40.531Z,95439.97
2023-05-07T04:29:07.495Z,95450.00
2023-05-07T04:31:34.117Z,95446.97
2023-05-07T04:34:01.125Z,95444.81
2023-05-07T04:36:27.819Z,95446.72
2023-05-07T04:38:54.257Z,95451.31
2023-05-07T04:41:20.918Z,95445.91
2023-05-07T04:43:47.210Z,95446.66
2023-05-07T04:46:14.312Z,95446.41
2023-05-07T04:48:40.658Z,95444.22
2023-05-07T04:51:06.996Z,95444.50
2023-05-07T04:53:33.346Z,95455.59
2023-05-07T04:55:59.800Z,95450.44
2023-05-07T04:58:26.122Z,95449.38
2023-05-07T05:00:52.634Z,95447.97
2023-05-07T05:03:19.850Z,95442.56
2023-05-07T05:05:46.229Z,95450.41
2023-05-07T05:08:12.557Z,95454.47
2023-05-07T05:10:38.888Z,95461.22
2023-05-07T05:13:05.194Z,95460.69
2023-05-07T05:15:33.770Z,95456.63
2023-05-07T05:18:00.427Z,95451.22
2023-05-07T05:20:27.511Z,95449.31
2023-05-07T05:22:53.776Z,95441.44
2023-05-07T05:25:20.055Z,95442.25
2023-05-07T05:27:46.358Z,95441.38
2023-05-07T05:30:13.577Z,95441.63
2023-05-07T05:32:39.988Z,95440.00
2023-05-07T05:35:07.053Z,95445.63
2023-05-07T05:37:37.081Z,95447.19
2023-05-07T05:40:04.457Z,95448.22
2023-05-07T05:42:30.759Z,95450.28
2023-05-07T05:44:57.035Z,95450.78
2023-05-07T05:47:23.617Z,95444.44
2023-05-07T05:49:49.877Z,95447.53
2023-05-07T05:52:17.055Z,95442.75
2023-05-07T05:54:43.985Z,95436.56
2023-05-07T05:57:10.369Z,95438.84
2023-05-07T05:59:36.686Z,95448.72
2023-05-07T06:02:03.300Z,95440.88
2023-05-07T06:04:29.684Z,95440.75
2023-05-07T06:06:57.141Z,95443.94
2023-05-07T06:09:23.470Z,95439.22
2023-05-07T06:11:50.487Z,95441.91
2023-05-07T06:14:16.753Z,95452.41
2023-05-07T06:16:43.159Z,95443.22
2023-05-07T06:19:09.612Z,95446.47
2023-05-07T06:21:35.894Z,95436.81
2023-05-07T06:24:03.055Z,95427.13
2023-05-07T06:26:29.366Z,95425.00
2023-05-07T06:28:56.290Z,95425.34
2023-05-07T06:31:22.705Z,95418.94
2023-05-07T06:33:49.404Z,95419.47
2023-05-07T06:36:16.021Z,95419.09
2023-05-07T06:38:42.350Z,95417.41
2023-05-07T06:41:08.642Z,95424.25
2023-05-07T06:43:34.952Z,95425.28
2023-05-07T06:46:01.989Z,95420.22
2023-05-07T06:48:28.345Z,95415.94
2023-05-07T06:50:55.948Z,95420.81
2023-05-07T06:53:22.288Z,95418.97
2023-05-07T06:55:48.577Z,95415.16
2023-05-07T06:58:14.891Z,95416.03
2023-05-07T07:00:41.326Z,95406.38
2023-05-07T07:03:11.406Z,95411.88
2023-05-07T07:05:37.763Z,95406.41
2023-05-07T07:08:04.455Z,95406.88
2023-05-07T07:10:30.706Z,95410.44
2023-05-07T07:12:57.054Z,95405.09
2023-05-07T07:15:25.214Z,95411.72
2023-05-07T07:17:51.726Z,95406.59
2023-05-07T07:20:18.824Z,95418.47
2023-05-07T07:22:45.178Z,95408.94
2023-05-07T07:25:12.242Z,95399.88
2023-05-07T07:27:40.193Z,95407.38
2023-05-07T07:30:07.566Z,95402.94
2023-05-07T07:32:33.897Z,95407.72
2023-05-07T07:35:00.222Z,95406.41
2023-05-07T07:37:27.464Z,95402.16
2023-05-07T07:39:53.827Z,95393.19
2023-05-07T07:42:20.180Z,95401.44
2023-05-07T07:44:46.500Z,95397.09
2023-05-07T07:47:15.355Z,95395.44
2023-05-07T07:49:41.754Z,95396.25
2023-05-07T07:52:08.074Z,95400.66
2023-05-07T07:54:35.016Z,95398.22
2023-05-07T07:57:01.780Z,95395.63
2023-05-07T07:59:28.246Z,95396.53
2023-05-07T08:01:57.291Z,95398.09
2023-05-07T08:04:23.716Z,95407.53
2023-05-07T08:06:50.035Z,95408.41
2023-05-07T08:09:16.383Z,95394.69
2023-05-07T08:11:43.348Z,95397.00
2023-05-07T08:14:09.699Z,95396.31
2023-05-07T08:16:36.171Z,95394.78
2023-05-07T08:19:02.622Z,95390.53
2023-05-07T08:21:28.928Z,95394.78
2023-05-07T08:23:55.208Z,95390.50
2023-05-07T08:26:21.504Z,95393.63
2023-05-07T08:28:48.626Z,95388.78
2023-05-07T08:31:15.106Z,95393.81
2023-05-07T08:33:41.514Z,95396.78
2023-05-07T08:36:08.163Z,95402.81
2023-05-07T08:38:34.463Z,95402.09
2023-05-07T08:41:00.827Z,95400.78
2023-05-07T08:43:27.951Z,95392.19
2023-05-07T08:45:56.016Z,95402.44
2023-05-07T08:48:25.881Z,95396.31
2023-05-07T08:50:52.433Z,95397.31
2023-05-07T08:53:20.735Z,95401.22
2023-05-07T08:55:48.127Z,95395.47
2023-05-07T08:58:14.468Z,95397.56
2023-05-07T09:00:42.313Z,95397.88
2023-05-07T09:03:12.607Z,95394.63
2023-05-07T09:05:39.046Z,95396.25
2023-05-07T09:08:07.919Z,95400.88
2023-05-07T09:10:34.761Z,95396.88
2023-05-07T09:13:01.115Z,95400.88
2023-05-07T09:15:28.674Z,95392.38
2023-05-07T09:17:55.057Z,95394.44
2023-05-07T09:20:22.120Z,95396.84
2023-05-07T09:22:51.386Z,95390.84
2023-05-07T09:25:29.090Z,95386.03
2023-05-07T09:27:55.657Z,95387.50
2023-05-07T09:30:22.045Z,95374.34
2023-05-07T09:32:51.513Z,95380.91
2023-05-07T09:35:18.438Z,95382.28
2023-05-07T09:37:46.194Z,95379.38
2023-05-07T09:40:22.241Z,95374.06
2023-05-07T09:42:49.776Z,95387.78
2023-05-07T09:45:16.394Z,95371.50
2023-05-07T09:47:45.208Z,95381.28
2023-05-07T09:50:13.498Z,95372.97
2023-05-07T09:52:41.200Z,95372.75
2023-05-07T09:55:09.274Z,95370.19
2023-05-07T09:57:36.942Z,95372.03
2023-05-07T10:00:05.645Z,95374.50
2023-05-07T10:02:35.861Z,95366.41
2023-05-07T10:05:03.263Z,95378.69
2023-05-07T10:07:30.410Z,95366.38
2023-05-07T10:09:58.233Z,95369.97
2023-05-07T10:12:25.272Z,95372.72
2023-05-07T10:14:53.555Z,95374.16
2023-05-07T10:17:20.851Z,95368.09
2023-05-07T10:19:47.406Z,95377.88
2023-05-07T10:22:16.537Z,95370.13
2023-05-07T10:24:45.335Z,95376.53
2023-05-07T10:27:14.598Z,95371.44
2023-05-07T10:29:50.258Z,95369.94
2023-05-07T10:32:39.493Z,95376.66
2023-05-07T10:35:16.683Z,95376.69
2023-05-07T10:37:45.678Z,95372.66
2023-05-07T10:40:13.334Z,95369.97
2023-05-07T10:42:39.901Z,95375.63
2023-05-07T10:45:19.456Z,95357.09
2023-05-07T10:48:28.169Z,95364.72
2023-05-07T10:51:19.219Z,95370.44
2023-05-07T10:53:45.524Z,95376.03
2023-05-07T10:56:28.398Z,95365.53
2023-05-07T10:58:54.790Z,95372.66
2023-05-07T11:01:53.468Z,95367.72
2023-05-07T11:04:24.825Z,95367.50
2023-05-07T11:07:28.075Z,95366.75
2023-05-07T11:10:04.162Z,95361.72
2023-05-07T11:12:55.691Z,95369.84
2023-05-07T11:15:52.306Z,95367.84
2023-05-07T11:18:19.838Z,95366.47
2023-05-07T11:20:54.897Z,95365.88
2023-05-07T11:24:07.120Z,95364.44
2023-05-07T11:26:43.707Z,95360.03
2023-05-07T11:29:11.938Z,95358.00
2023-05-07T11:31:38.951Z,95354.47
2023-05-07T11:34:06.107Z,95357.50
2023-05-07T11:36:33.591Z,95348.69
2023-05-07T11:39:01.816Z,95348.78
2023-05-07T11:41:34.696Z,95345.31
2023-05-07T11:44:01.033Z,95354.25
2023-05-07T11:46:29.086Z,95354.81
2023-05-07T11:48:55.771Z,95354.72
2023-05-07T11:51:24.387Z,95356.91
2023-05-07T11:53:50.967Z,95344.88
2023-05-07T11:56:18.310Z,95345.81
2023-05-07T11:58:46.626Z,95348.03
2023-05-07T12:01:13.925Z,95354.25
2023-05-07T12:03:42.862Z,95348.50
2023-05-07T12:06:10.082Z,95347.09
2023-05-07T12:08:38.411Z,95337.69
2023-05-07T12:11:08.505Z,95349.28
2023-05-07T12:13:34.969Z,95334.88
2023-05-07T12:16:06.219Z,95331.88
2023-05-07T12:18:33.485Z,95330.69
2023-05-07T12:21:00.275Z,95333.50
2023-05-07T12:23:26.924Z,95329.41
2023-05-07T12:25:53.954Z,95325.63
2023-05-07T12:28:20.564Z,95321.97
2023-05-07T12:30:48.406Z,95322.06
2023-05-07T12:33:18.110Z,95319.06
2023-05-07T12:35:44.977Z,95317.78
2023-05-07T12:38:12.853Z,95320.03
2023-05-07T12:40:40.444Z,95308.63
2023-05-07T12:43:07.451Z,95316.22
2023-05-07T12:45:38.964Z,95310.25
2023-05-07T12:48:05.705Z,95320.81
2023-05-07T12:50:35.452Z,95309.00
2023-05-07T12:53:06.227Z,95313.31
2023-05-07T12:55:34.889Z,95308.06
2023-05-07T12:58:02.061Z,95314.69
2023-05-07T13:00:36.743Z,95318.16
2023-05-07T13:03:03.285Z,95314.69
2023-05-07T13:05:29.657Z,95307.97
2023-05-07T13:07:56.584Z,95311.63
2023-05-07T13:10:23.707Z,95311.16
2023-05-07T13:12:50.100Z,95318.19
2023-05-07T13:15:16.656Z,95314.09
2023-05-07T13:17:43.682Z,95319.03
2023-05-07T13:20:11.628Z,95316.13
2023-05-07T13:22:38.178Z,95317.81
2023-05-07T13:25:05.191Z,95318.50
2023-05-07T13:27:31.485Z,95326.00
2023-05-07T13:29:57.953Z,95317.25
2023-05-07T13:32:24.316Z,95317.25
2023-05-07T13:34:51.328Z,95311.81
2023-05-07T13:37:17.654Z,95311.66
2023-05-07T13:39:46.935Z,95321.25
2023-05-07T13:42:13.318Z,95326.66
2023-05-07T13:44:48.345Z,95318.06
2023-05-07T13:47:14.635Z,95321.63
2023-05-07T13:49:40.969Z,95323.31
2023-05-07T13:52:07.874Z,95320.41
2023-05-07T13:54:34.173Z,95324.56
2023-05-07T13:57:00.740Z,95323.44
2023-05-07T13:59:27.040Z,95317.53
2023-05-07T14:01:53.327Z,95318.72
2023-05-07T14:04:19.637Z,95316.22
2023-05-07T14:06:46.043Z,95317.59
2023-05-07T14:09:13.581Z,95315.25
2023-05-07T14:11:43.098Z,95315.94
2023-05-07T14:14:10.884Z,95319.72
2023-05-07T14:16:37.538Z,95317.91
2023-05-07T14:19:03.922Z,95321.91
2023-05-07T14:21:35.760Z,95321.72
2023-05-07T14:24:07.145Z,95321.97
2023-05-07T14:26:34.126Z,95327.41
2023-05-07T14:29:00.536Z,95323.72
2023-05-07T14:31:26.918Z,95326.81
2023-05-07T14:33:53.810Z,95320.59
2023-05-07T14:36:21.458Z,95320.97
2023-05-07T14:38:47.852Z,95319.88
2023-05-07T14:41:14.521Z,95320.63
2023-05-07T14:43:41.504Z,95319.78
2023-05-07T14:46:07.883Z,95319.97
2023-05-07T14:48:34.218Z,95319.91
2023-05-07T14:51:00.564Z,95326.63
2023-05-07T14:53:26.851Z,95321.31
2023-05-07T14:55:53.230Z,95317.97
2023-05-07T14:58:19.619Z,95324.56
2023-05-07T15:00:46.597Z,95326.97
2023-05-07T15:03:13.687Z,95321.94
2023-05-07T15:05:40.016Z,95322.78
2023-05-07T15:08:06.338Z,95324.44
2023-05-07T15:10:40.464Z,95329.53
2023-05-07T15:13:07.158Z,95327.94
2023-05-07T15:15:33.667Z,95329.09
2023-05-07T15:18:03.725Z,95324.00
2023-05-07T15:20:30.162Z,95326.19
2023-05-07T15:22:56.554Z,95327.81
2023-05-07T15:25:23.281Z,95319.38
2023-05-07T15:27:49.682Z,95316.66
2023-05-07T15:30:16.155Z,95318.09
2023-05-07T15:32:42.999Z,95323.25
2023-05-07T15:35:10.588Z,95318.38
2023-05-07T15:37:37.096Z,95317.94
2023-05-07T15:40:06.748Z,95317.47
2023-05-07T15:42:33.184Z,95316.84
2023-05-07T15:45:00.703Z,95317.16
2023-05-07T15:47:27.178Z,95321.69
2023-05-07T15:49:53.515Z,95322.47
2023-05-07T15:52:20.953Z,95327.94
2023-05-07T15:54:47.687Z,95322.91
2023-05-07T15:57:13.987Z,95310.31
2023-05-07T15:59:40.382Z,95311.78
2023-05-07T16:02:07.526Z,95307.25
2023-05-07T16:04:33.836Z,95316.78
2023-05-07T16:07:00.300Z,95309.56
2023-05-07T16:09:28.614Z,95313.28
2023-05-07T16:11:56.561Z,95307.22
2023-05-07T16:14:23.546Z,95308.72
2023-05-07T16:16:49.944Z,95302.34
2023-05-07T16:19:16.479Z,95302.88
2023-05-07T16:21:42.762Z,95308.38
2023-05-07T16:24:09.140Z,95300.56
2023-05-07T16:26:36.070Z,95307.34
2023-05-07T16:29:04.342Z,95306.28
2023-05-07T16:31:30.726Z,95301.38
2023-05-07T16:33:57.123Z,95303.69
2023-05-07T16:36:23.438Z,95303.16
2023-05-07T16:38:49.733Z,95312.97
2023-05-07T16:41:16.034Z,95306.75
2023-05-07T16:43:43.036Z,95303.81
2023-05-07T16:46:09.596Z,95309.22
2023-05-07T16:48:35.968Z,95308.53
2023-05-07T16:51:02.964Z,95302.28
2023-05-07T16:53:29.265Z,95319.00
2023-05-07T16:55:55.869Z,95309.47
2023-05-07T16:58:22.346Z,95314.63
2023-05-07T17:00:51.241Z,95312.06
2023-05-07T17:03:18.044Z,95310.97
2023-05-07T17:05:44.812Z,95320.81
2023-05-07T17:08:14.462Z,95319.09
2023-05-07T17:10:41.435Z,95326.41
2023-05-07T17:13:07.862Z,95327.69
2023-05-07T17:15:34.266Z,95335.63
2023-05-07T17:18:01.245Z,95326.91
2023-05-07T17:20:27.948Z,95337.50
2023-05-07T17:22:54.784Z,95337.66
2023-05-07T17:25:22.521Z,95342.81
2023-05-07T17:27:49.066Z,95341.13
2023-05-07T17:30:15.406Z,95348.03
2023-05-07T17:32:42.217Z,95344.63
2023-05-07T17:35:09.634Z,95349.22
2023-05-07T17:37:35.924Z,95354.41
2023-05-07T17:40:02.639Z,95363.59
2023-05-07T17:42:32.783Z,95370.81
2023-05-07T17:44:59.119Z,95367.91
2023-05-07T17:47:25.446Z,95378.91
2023-05-07T17:49:51.813Z,95377.59
2023-05-07T17:52:18.851Z,95370.59
2023-05-07T17:54:45.176Z,95373.31
2023-05-07T17:57:11.499Z,95378.09
2023-05-07T17:59:38.511Z,95386.91
2023-05-07T18:02:05.023Z,95388.72
2023-05-07T18:04:31.415Z,95382.63
2023-05-07T18:06:57.726Z,95389.66
2023-05-07T18:09:24.796Z,95393.59
2023-05-07T18:11:51.169Z,95395.31
2023-05-07T18:14:17.442Z,95400.31
2023-05-07T18:16:43.812Z,95399.13
2023-05-07T18:19:10.977Z,95398.66
2023-05-07T18:21:37.295Z,95408.22
2023-05-07T18:24:04.104Z,95402.13
2023-05-07T18:26:31.082Z,95403.31
2023-05-07T18:28:57.416Z,95404.66
2023-05-07T18:31:23.730Z,95408.59
2023-05-07T18:33:51.270Z,95413.31
2023-05-07T18:36:17.563Z,95413.38
2023-05-07T18:38:43.968Z,95418.84
2023-05-07T18:41:10.358Z,95421.78
2023-05-07T18:43:37.348Z,95427.63
2023-05-07T18:46:03.789Z,95427.31
2023-05-07T18:48:30.112Z,95426.69
2023-05-07T18:50:56.459Z,95429.78
2023-05-07T18:53:23.191Z,95426.56
2023-05-07T18:55:50.060Z,95434.84
2023-05-07T18:58:18.887Z,95440.97
2023-05-07T19:00:46.894Z,95444.56
2023-05-07T19:03:14.435Z,95447.78
2023-05-07T19:05:40.984Z,95442.00
2023-05-07T19:08:07.331Z,95443.31
2023-05-07T19:10:34.006Z,95447.81
2023-05-07T19:13:00.359Z,95453.47
2023-05-07T19:15:26.874Z,95458.13
2023-05-07T19:17:53.875Z,95465.38
2023-05-07T19:20:20.498Z,95463.16
2023-05-07T19:22:46.836Z,95467.44
2023-05-07T19:25:13.897Z,95464.72
2023-05-07T19:27:42.557Z,95469.38
2023-05-07T19:30:10.031Z,95468.59
2023-05-07T19:32:36.475Z,95473.38
2023-05-07T19:35:04.063Z,95472.44
2023-05-07T19:37:30.476Z,95489.66
2023-05-07T19:40:07.263Z,95480.31
2023-05-07T19:42:33.682Z,95488.84
2023-05-07T19:45:00.268Z,95491.25
2023-05-07T19:47:26.714Z,95502.22
2023-05-07T19:49:53.098Z,95500.44
2023-05-07T19:52:20.077Z,95502.53
2023-05-07T19:54:46.729Z,95498.66
2023-05-07T19:57:13.358Z,95498.50
2023-05-07T19:59:39.920Z,95495.31
2023-05-07T20:02:06.622Z,95503.19
2023-05-07T20:04:37.111Z,95503.38
2023-05-07T20:07:03.569Z,95506.25
2023-05-07T20:09:30.626Z,95512.53
2023-05-07T20:11:56.923Z,95513.38
2023-05-07T20:14:23.216Z,95511.25
2023-05-07T20:16:49.558Z,95514.66
2023-05-07T20:19:15.866Z,95519.53
2023-05-07T20:21:42.183Z,95512.94
2023-05-07T20:24:08.728Z,95525.63
2023-05-07T20:26:35.700Z,95520.16
2023-05-07T20:29:02.677Z,95525.50
2023-05-07T20:31:31.218Z,95525.97
2023-05-07T20:33:58.047Z,95528.72
2023-05-07T20:36:25.687Z,95539.69
2023-05-07T20:38:52.065Z,95534.38
2023-05-07T20:41:20.141Z,95533.53
2023-05-07T20:43:47.255Z,95535.66
2023-05-07T20:46:13.655Z,95546.13
2023-05-07T20:48:40.027Z,95544.63
2023-05-07T20:51:06.442Z,95544.63
2023-05-07T20:53:36.792Z,95552.34
2023-05-07T20:56:04.110Z,95556.50
2023-05-07T20:58:30.461Z,95553.44
2023-05-07T21:00:57.391Z,95559.53
2023-05-07T21:03:23.737Z,95565.00
2023-05-07T21:05:51.225Z,95563.88
2023-05-07T21:08:17.592Z,95556.59
2023-05-07T21:10:43.870Z,95564.44
2023-05-07T21:13:10.231Z,95566.72
2023-05-07T21:15:36.645Z,95573.44
2023-05-07T21:18:03.985Z,95568.13
2023-05-07T21:20:30.506Z,95570.34
2023-05-07T21:22:56.816Z,95568.91
2023-05-07T21:25:23.158Z,95571.94
2023-05-07T21:27:49.689Z,95581.59
2023-05-07T21:30:16.030Z,95583.50
2023-05-07T21:32:42.401Z,95590.91
2023-05-07T21:35:09.633Z,95597.69
2023-05-07T21:37:36.196Z,95596.38
2023-05-07T21:40:02.584Z,95605.72
2023-05-07T21:42:29.017Z,95605.19
2023-05-07T21:44:55.349Z,95607.22
2023-05-07T21:47:21.712Z,95608.66
2023-05-07T21:49:48.097Z,95607.03
2023-05-07T21:52:18.076Z,95612.47
2023-05-07T21:54:44.394Z,95619.97
2023-05-07T21:57:10.688Z,95621.31
2023-05-07T21:59:37.421Z,95624.59
2023-05-07T22:02:03.754Z,95624.53
2023-05-07T22:04:30.162Z,95623.63
2023-05-07T22:06:56.491Z,95627.78
2023-05-07T22:09:23.532Z,95630.84
2023-05-07T22:11:49.892Z,95640.97
2023-05-07T22:14:20.322Z,95637.03
2023-05-07T22:16:47.487Z,95642.41
2023-05-07T22:19:14.332Z,95651.50
2023-05-07T22:21:40.629Z,95653.13
2023-05-07T22:24:07.413Z,95656.47
2023-05-07T22:26:34.425Z,95662.34
2023-05-07T22:29:00.762Z,95661.16
2023-05-07T22:31:27.110Z,95665.00
2023-05-07T22:33:53.433Z,95665.38
2023-05-07T22:36:19.780Z,95671.59
2023-05-07T22:38:46.046Z,95669.75
2023-05-07T22:41:12.413Z,95672.59
2023-05-07T22:43:39.427Z,95669.69
2023-05-07T22:46:05.943Z,95678.84
2023-05-07T22:48:32.464Z,95680.78
2023-05-07T22:50:58.780Z,95679.47
2023-05-07T22:58:19.110Z,95683.88
2023-05-07T23:00:46.462Z,95679.41
2023-05-07T23:03:12.976Z,95686.19
2023-05-07T23:05:39.637Z,95690.84
2023-05-07T23:08:06.233Z,95685.53
2023-05-07T23:10:34.216Z,95690.53
2023-05-07T23:13:00.958Z,95687.47
2023-05-07T23:15:28.057Z,95690.19
2023-05-07T23:17:54.411Z,95685.06
2023-05-07T23:20:21.468Z,95690.19
2023-05-07T23:22:47.743Z,95684.25
2023-05-07T23:25:14.037Z,95687.97
2023-05-07T23:27:40.320Z,95689.38
2023-05-07T23:30:08.103Z,95684.56
2023-05-07T23:32:35.189Z,95675.84
2023-05-07T23:35:01.489Z,95687.28
2023-05-07T23:37:27.795Z,95679.41
2023-05-07T23:39:54.229Z,95680.28
2023-05-07T23:42:20.548Z,95682.13
2023-05-07T23:44:46.967Z,95684.25
2023-05-07T23:47:13.251Z,95678.19
2023-05-07T23:49:40.228Z,95678.28
2023-05-07T23:52:06.842Z,95684.63
2023-05-07T23:54:33.165Z,95687.38
2023-05-07T23:56:59.453Z,95682.00
2023-05-07T23:59:25.767Z,95677.63
